Time;durP1;ratioP1;P1;durP2;ratioP2;P2;SDS_P1;SDS_P2;PMS_P1;PMS_P2;Temp;Humidity;BMP_temperature;BMP_pressure;BME280_temperature;BME280_humidity;BME280_pressure;Samples;Min_cycle;Max_cycle;Signal;HPM_P1;HPM_P2
2022/01/01 00:00:10;;;;;;;57.50;16.98;;;10.80;99.90;;;;;;5052485;28;20094;-79
2022/01/01 00:02:36;;;;;;;60.10;17.92;;;10.30;99.90;;;;;;5050628;28;20041;-80
2022/01/01 00:05:03;;;;;;;70.53;31.02;;;10.50;99.90;;;;;;5037738;28;20132;-79
2022/01/01 00:07:28;;;;;;;56.45;18.83;;;10.40;99.90;;;;;;5039814;28;20043;-78
2022/01/01 00:09:54;;;;;;;47.30;17.13;;;10.40;99.90;;;;;;5041511;28;20046;-82
2022/01/01 00:12:20;;;;;;;57.60;20.20;;;10.70;99.90;;;;;;5052364;28;20119;-80
2022/01/01 00:14:45;;;;;;;61.90;19.15;;;10.40;99.90;;;;;;5052041;28;20071;-80
2022/01/01 00:17:11;;;;;;;68.53;21.92;;;10.40;99.90;;;;;;5048040;28;20049;-81
2022/01/01 00:19:38;;;;;;;61.10;25.40;;;10.40;99.90;;;;;;5051538;28;20040;-78
2022/01/01 00:22:04;;;;;;;81.93;32.50;;;10.90;99.90;;;;;;5051011;28;20049;-80
2022/01/01 00:24:30;;;;;;;86.22;34.03;;;10.40;99.90;;;;;;5050416;28;20037;-80
2022/01/01 00:26:55;;;;;;;85.40;37.33;;;10.40;99.90;;;;;;5048049;28;20124;-80
2022/01/01 00:29:21;;;;;;;73.60;33.08;;;10.40;99.90;;;;;;5051576;28;20047;-81
2022/01/01 00:31:48;;;;;;;90.07;38.05;;;10.40;99.90;;;;;;5051173;28;20065;-81
2022/01/01 00:34:13;;;;;;;91.75;38.55;;;10.80;99.90;;;;;;5049750;28;20387;-81
2022/01/01 00:36:39;;;;;;;106.78;48.55;;;10.40;99.90;;;;;;5033506;28;20053;-81
2022/01/01 00:39:05;;;;;;;88.22;41.92;;;10.60;99.90;;;;;;5050849;28;20207;-80
2022/01/01 00:41:31;;;;;;;90.55;39.50;;;10.40;99.90;;;;;;5020612;28;20045;-80
2022/01/01 00:43:57;;;;;;;85.28;37.08;;;10.40;99.90;;;;;;5045232;28;20049;-80
2022/01/01 00:46:23;;;;;;;85.28;32.72;;;10.40;99.90;;;;;;5051151;28;20041;-80
2022/01/01 00:48:53;;;;;;;73.50;28.67;;;10.30;99.90;;;;;;5050764;28;20409;-81
2022/01/01 00:51:19;;;;;;;66.30;25.58;;;10.30;99.90;;;;;;5051036;28;20136;-80
2022/01/01 00:53:45;;;;;;;74.47;25.25;;;10.30;99.90;;;;;;5051092;28;20045;-84
2022/01/01 00:56:11;;;;;;;67.35;23.13;;;10.30;99.90;;;;;;5016121;28;20576;-80
2022/01/01 00:58:36;;;;;;;62.70;22.60;;;10.30;99.90;;;;;;5050460;28;20056;-79
2022/01/01 01:01:02;;;;;;;60.35;20.23;;;10.20;99.90;;;;;;5040544;28;20049;-81
2022/01/01 01:03:27;;;;;;;61.78;19.80;;;10.20;99.90;;;;;;5032390;28;20050;-79
2022/01/01 01:05:53;;;;;;;67.90;20.88;;;10.20;99.90;;;;;;5029452;28;20085;-80
2022/01/01 01:08:19;;;;;;;60.45;21.40;;;10.20;99.90;;;;;;5031094;28;20128;-79
2022/01/01 01:10:46;;;;;;;76.53;22.80;;;10.20;99.90;;;;;;5029139;28;20052;-80
2022/01/01 01:13:15;;;;;;;72.07;23.40;;;10.60;99.90;;;;;;5030511;28;20049;-80
2022/01/01 01:15:41;;;;;;;78.88;25.65;;;10.10;99.90;;;;;;5030773;28;20058;-80
2022/01/01 01:18:07;;;;;;;66.47;24.13;;;10.00;99.90;;;;;;5030933;28;20072;-79
2022/01/01 01:20:33;;;;;;;82.70;26.65;;;10.00;99.90;;;;;;5039539;28;20076;-80
2022/01/01 01:22:59;;;;;;;93.03;28.27;;;10.00;99.90;;;;;;5030541;28;20052;-80
2022/01/01 01:25:29;;;;;;;93.88;30.10;;;10.00;99.90;;;;;;5030594;28;20385;-79
2022/01/01 01:27:55;;;;;;;88.32;26.90;;;10.00;99.90;;;;;;5030459;28;20049;-80
2022/01/01 01:30:22;;;;;;;96.55;28.45;;;10.00;99.90;;;;;;5029670;28;20053;-80
2022/01/01 01:32:48;;;;;;;83.35;25.35;;;10.00;99.90;;;;;;5041432;28;20057;-80
2022/01/01 01:35:14;;;;;;;99.07;32.78;;;10.00;99.90;;;;;;5012841;28;20549;-81
2022/01/01 01:37:41;;;;;;;108.03;34.80;;;9.90;99.90;;;;;;5043034;28;20471;-80
2022/01/01 01:40:07;;;;;;;94.10;31.38;;;10.00;99.90;;;;;;5032640;28;20053;-81
2022/01/01 01:42:34;;;;;;;93.50;33.78;;;10.00;99.90;;;;;;5050127;28;20071;-79
2022/01/01 01:45:02;;;;;;;88.75;32.20;;;10.00;99.90;;;;;;5050022;28;20095;-82
2022/01/01 01:47:30;;;;;;;94.25;33.58;;;10.00;99.90;;;;;;5050267;28;20457;-81
2022/01/01 01:50:01;;;;;;;93.88;35.53;;;10.10;99.90;;;;;;5045179;28;20619;-80
2022/01/01 01:52:32;;;;;;;112.25;39.08;;;10.10;99.90;;;;;;5030551;28;20054;-80
2022/01/01 01:54:58;;;;;;;111.80;39.25;;;10.40;99.90;;;;;;5031264;28;20489;-80
2022/01/01 01:57:25;;;;;;;123.68;41.75;;;10.10;99.90;;;;;;5038321;28;20048;-79
2022/01/01 01:59:52;;;;;;;96.40;38.03;;;10.10;99.90;;;;;;5029914;28;20516;-79
2022/01/01 02:02:18;;;;;;;119.53;42.50;;;10.10;99.90;;;;;;5046511;28;20052;-80
2022/01/01 02:04:44;;;;;;;117.75;43.53;;;10.40;99.90;;;;;;5016404;28;20052;-80
2022/01/01 02:07:11;;;;;;;114.80;44.17;;;10.10;99.90;;;;;;5025599;28;20111;-80
2022/01/01 02:09:37;;;;;;;113.60;40.65;;;10.10;99.90;;;;;;5050169;28;20049;-80
2022/01/01 02:12:07;;;;;;;117.82;43.17;;;10.10;99.90;;;;;;5029050;28;20057;-81
2022/01/01 02:17:25;;;;;;;111.75;39.65;;;10.50;99.90;;;;;;5050004;28;20132;-80
2022/01/01 02:19:54;;;;;;;98.10;38.45;;;10.20;99.90;;;;;;5031847;28;20059;-81
2022/01/01 02:22:20;;;;;;;94.78;35.42;;;10.10;99.90;;;;;;5049869;28;20537;-79
2022/01/01 02:24:47;;;;;;;97.40;37.53;;;10.20;99.90;;;;;;5049573;28;20041;-79
2022/01/01 02:27:12;;;;;;;121.43;37.13;;;10.10;99.90;;;;;;5049701;28;20053;-79
2022/01/01 02:29:38;;;;;;;91.20;32.38;;;10.10;99.90;;;;;;5024208;28;20121;-79
2022/01/01 02:32:11;;;;;;;92.35;30.17;;;10.20;99.90;;;;;;5041379;28;20548;-78
2022/01/01 02:34:37;;;;;;;89.70;31.30;;;10.10;99.90;;;;;;5049469;28;20131;-80
2022/01/01 02:37:04;;;;;;;85.15;31.08;;;10.10;99.90;;;;;;5049794;28;20116;-79
2022/01/01 02:39:29;;;;;;;91.63;30.50;;;10.10;99.90;;;;;;5049538;28;20571;-79
2022/01/01 02:41:56;;;;;;;108.82;30.20;;;10.10;99.90;;;;;;5049747;28;20136;-79
2022/01/01 02:44:24;;;;;;;99.82;29.65;;;10.10;99.90;;;;;;5016416;28;20048;-79
2022/01/01 02:46:52;;;;;;;85.53;29.38;;;10.10;99.90;;;;;;5052839;28;20055;-80
2022/01/01 02:49:18;;;;;;;89.40;32.42;;;10.40;99.90;;;;;;5053339;28;20558;-80
2022/01/01 02:51:44;;;;;;;90.60;34.50;;;10.20;99.90;;;;;;5053526;28;20131;-79
2022/01/01 02:54:09;;;;;;;99.20;35.72;;;10.20;99.90;;;;;;5053328;28;20041;-78
2022/01/01 02:56:35;;;;;;;95.10;34.15;;;10.20;99.90;;;;;;5035663;28;20128;-79
2022/01/01 02:59:01;;;;;;;115.05;39.53;;;10.20;99.90;;;;;;5035359;28;20061;-79
2022/01/01 03:01:26;;;;;;;116.43;38.53;;;10.10;99.90;;;;;;5047166;28;20096;-80
2022/01/01 03:03:52;;;;;;;100.78;37.85;;;10.20;99.90;;;;;;5042511;28;20405;-80
2022/01/01 03:06:20;;;;;;;115.80;40.47;;;10.50;99.90;;;;;;5033521;28;20056;-80
2022/01/01 03:08:52;;;;;;;105.50;38.55;;;10.10;99.90;;;;;;5033439;28;20045;-79
2022/01/01 03:11:18;;;;;;;110.75;39.90;;;10.20;99.90;;;;;;5033215;28;20049;-77
2022/01/01 03:13:44;;;;;;;107.25;39.30;;;10.20;99.90;;;;;;5033196;28;20852;-82
2022/01/01 03:16:10;;;;;;;92.38;36.83;;;10.10;99.90;;;;;;5032972;28;20056;-80
2022/01/01 03:18:36;;;;;;;99.95;31.85;;;10.30;99.90;;;;;;5036721;28;20399;-80
2022/01/01 03:21:02;;;;;;;99.10;33.70;;;10.20;99.90;;;;;;5053058;28;20052;-81
2022/01/01 03:23:27;;;;;;;109.20;37.17;;;10.20;99.90;;;;;;5052796;28;20037;-81
2022/01/01 03:25:53;;;;;;;97.18;34.10;;;10.20;99.90;;;;;;5052849;28;20107;-80
2022/01/01 03:28:19;;;;;;;84.57;29.65;;;10.20;99.90;;;;;;5034828;28;20059;-79
2022/01/01 03:30:44;;;;;;;95.22;31.48;;;10.20;99.90;;;;;;5052625;28;20407;-79
2022/01/01 03:33:10;;;;;;;88.20;28.65;;;10.60;99.90;;;;;;5052187;28;20436;-80
2022/01/01 03:35:36;;;;;;;87.28;30.90;;;10.80;99.90;;;;;;5052973;28;20598;-80
2022/01/01 03:38:01;;;;;;;93.03;31.02;;;10.20;99.90;;;;;;5052823;28;20091;-80
2022/01/01 03:40:27;;;;;;;93.30;32.40;;;10.20;99.90;;;;;;5052411;28;20122;-80
2022/01/01 03:42:53;;;;;;;84.40;30.67;;;10.20;99.90;;;;;;5052692;28;20072;-80
2022/01/01 03:45:18;;;;;;;83.95;29.48;;;10.20;99.90;;;;;;5034747;28;20045;-79
2022/01/01 03:47:44;;;;;;;100.63;31.23;;;10.20;99.90;;;;;;5052463;28;20045;-80
2022/01/01 03:50:10;;;;;;;85.20;31.00;;;10.20;99.90;;;;;;5052089;28;20107;-78
2022/01/01 03:52:44;;;;;;;92.90;32.47;;;10.20;99.90;;;;;;5034429;28;20060;-79
2022/01/01 03:55:12;;;;;;;87.50;27.98;;;10.20;99.90;;;;;;5052093;28;20041;-80
2022/01/01 03:57:38;;;;;;;91.85;29.05;;;10.20;99.90;;;;;;5051685;28;20049;-80
2022/01/01 04:00:12;;;;;;;85.68;29.52;;;10.20;99.90;;;;;;5052181;28;20131;-79
2022/01/01 04:02:38;;;;;;;89.95;28.65;;;10.20;99.90;;;;;;5052144;28;20416;-78
2022/01/01 04:05:04;;;;;;;100.75;30.83;;;10.20;99.90;;;;;;5051210;28;20049;-79
2022/01/01 04:07:31;;;;;;;86.15;29.85;;;10.20;99.90;;;;;;5034053;28;20048;-80
2022/01/01 04:09:57;;;;;;;81.53;28.75;;;10.50;99.90;;;;;;5052019;28;20202;-78
2022/01/01 04:12:23;;;;;;;87.60;30.70;;;10.20;99.90;;;;;;5052086;28;20051;-81
2022/01/01 04:14:49;;;;;;;92.18;32.03;;;10.20;99.90;;;;;;5052049;28;20045;-79
2022/01/01 04:17:15;;;;;;;90.70;33.10;;;10.60;99.90;;;;;;5052004;28;20052;-79
2022/01/01 04:19:40;;;;;;;92.65;28.83;;;10.20;99.90;;;;;;5052115;28;20045;-79
2022/01/01 04:22:11;;;;;;;86.07;31.88;;;10.30;99.90;;;;;;5052025;28;20048;-80
2022/01/01 04:24:38;;;;;;;104.25;33.60;;;10.20;99.90;;;;;;5051880;28;20087;-80
2022/01/01 04:27:05;;;;;;;79.50;31.08;;;10.20;99.90;;;;;;5051844;28;20060;-80
2022/01/01 04:29:31;;;;;;;93.55;34.17;;;10.20;99.90;;;;;;5033884;28;20056;-80
2022/01/01 04:31:57;;;;;;;86.45;31.30;;;10.20;99.90;;;;;;5033149;28;20511;-79
2022/01/01 04:34:23;;;;;;;86.43;34.42;;;10.20;99.90;;;;;;5050847;28;20049;-79
2022/01/01 04:37:02;;;;;;;94.43;36.40;;;10.20;99.90;;;;;;5051233;28;20041;-79
2022/01/01 04:39:28;;;;;;;91.07;34.78;;;10.20;99.90;;;;;;5033614;28;20049;-79
2022/01/01 04:41:54;;;;;;;103.88;37.30;;;10.20;99.90;;;;;;5051186;28;20041;-79
2022/01/01 04:44:21;;;;;;;102.57;38.90;;;10.20;99.90;;;;;;5051380;28;20504;-80
2022/01/01 04:46:46;;;;;;;95.30;38.90;;;10.50;99.90;;;;;;5051531;28;20045;-79
2022/01/01 04:49:12;;;;;;;109.75;42.25;;;10.20;99.90;;;;;;5051596;28;20128;-79
2022/01/01 04:51:38;;;;;;;101.75;42.22;;;10.20;99.90;;;;;;5050888;28;20098;-80
2022/01/01 04:54:08;;;;;;;121.93;46.95;;;10.20;99.90;;;;;;5051376;28;20068;-80
2022/01/01 04:56:34;;;;;;;118.30;48.63;;;10.20;99.90;;;;;;5051197;28;20045;-79
2022/01/01 04:59:02;;;;;;;118.15;49.50;;;10.20;99.90;;;;;;5050907;28;20044;-80
2022/01/01 05:01:28;;;;;;;111.13;50.65;;;10.40;99.90;;;;;;5015756;28;20057;-78
2022/01/01 05:03:55;;;;;;;128.10;54.88;;;10.20;99.90;;;;;;5032623;28;20049;-79
2022/01/01 05:06:20;;;;;;;121.60;55.03;;;10.20;99.90;;;;;;5050833;28;20080;-80
2022/01/01 05:08:46;;;;;;;123.53;57.90;;;10.20;99.90;;;;;;5050136;28;20079;-80
2022/01/01 05:11:12;;;;;;;132.20;55.97;;;10.20;99.90;;;;;;5032835;28;20484;-79
2022/01/01 05:13:37;;;;;;;123.03;53.05;;;10.20;99.90;;;;;;5032436;28;20136;-81
2022/01/01 05:16:04;;;;;;;136.48;58.90;;;10.40;99.90;;;;;;5032360;28;20093;-79
2022/01/01 05:18:29;;;;;;;144.38;60.53;;;10.30;99.90;;;;;;5050484;28;20133;-79
2022/01/01 05:20:55;;;;;;;141.55;61.45;;;10.30;99.90;;;;;;5050324;28;20112;-81
2022/01/01 05:23:21;;;;;;;130.00;52.63;;;10.30;99.90;;;;;;5050177;28;20064;-80
2022/01/01 05:25:46;;;;;;;122.60;52.58;;;10.30;99.90;;;;;;5050167;28;20056;-79
2022/01/01 05:28:12;;;;;;;109.15;46.90;;;10.30;99.90;;;;;;5050413;28;20041;-80
2022/01/01 05:30:38;;;;;;;115.05;50.45;;;10.30;99.90;;;;;;5031892;28;20049;-80
2022/01/01 05:33:03;;;;;;;110.95;48.17;;;10.30;99.90;;;;;;5050032;28;20534;-80
2022/01/01 05:35:29;;;;;;;99.35;44.75;;;10.30;99.90;;;;;;5050456;28;20694;-80
2022/01/01 05:37:55;;;;;;;114.47;45.78;;;10.40;99.90;;;;;;5050246;28;20053;-79
2022/01/01 05:40:20;;;;;;;116.10;44.10;;;10.30;99.90;;;;;;5050128;28;20041;-79
2022/01/01 05:42:46;;;;;;;105.60;41.38;;;10.30;99.90;;;;;;5050034;28;20656;-80
2022/01/01 05:45:12;;;;;;;103.75;40.05;;;10.30;99.90;;;;;;5050081;28;20082;-80
2022/01/01 05:47:38;;;;;;;92.90;35.67;;;10.20;99.90;;;;;;5032079;28;20045;-80
2022/01/01 05:50:05;;;;;;;97.20;35.72;;;10.50;99.90;;;;;;5050357;28;20087;-80
2022/01/01 05:52:31;;;;;;;87.05;30.42;;;10.30;99.90;;;;;;5050244;28;20049;-78
2022/01/01 05:54:56;;;;;;;77.88;27.55;;;10.20;99.90;;;;;;5032225;28;20055;-79
2022/01/01 05:57:22;;;;;;;71.38;23.35;;;10.40;99.90;;;;;;5050133;28;20502;-81
2022/01/01 05:59:48;;;;;;;74.07;24.23;;;10.60;99.90;;;;;;5032255;28;20045;-79
2022/01/01 06:02:13;;;;;;;90.57;28.27;;;10.20;99.90;;;;;;5050584;28;20045;-80
2022/01/01 06:04:39;;;;;;;80.70;26.17;;;10.20;99.90;;;;;;5050576;28;20411;-79
2022/01/01 06:07:05;;;;;;;90.70;27.88;;;10.30;99.90;;;;;;5050174;28;20045;-79
2022/01/01 06:09:31;;;;;;;81.00;25.73;;;10.20;99.90;;;;;;5050003;28;20541;-80
2022/01/01 06:11:56;;;;;;;78.78;24.67;;;10.20;99.90;;;;;;5049959;28;20353;-80
2022/01/01 06:14:22;;;;;;;90.13;25.48;;;10.20;99.90;;;;;;5050254;28;20053;-80
2022/01/01 06:16:48;;;;;;;87.20;24.65;;;10.30;99.90;;;;;;5050026;28;20372;-78
2022/01/01 06:19:14;;;;;;;76.68;23.98;;;10.30;99.90;;;;;;5033370;28;20041;-80
2022/01/01 06:21:40;;;;;;;90.15;27.05;;;10.30;99.90;;;;;;5054016;28;20438;-79
2022/01/01 06:24:06;;;;;;;77.65;24.63;;;10.30;99.90;;;;;;5053638;28;20041;-79
2022/01/01 06:26:32;;;;;;;89.38;25.63;;;10.30;99.90;;;;;;5053518;28;20052;-83
2022/01/01 06:28:57;;;;;;;87.45;23.23;;;10.50;99.90;;;;;;5036078;28;20097;-79
2022/01/01 06:31:23;;;;;;;71.07;22.25;;;10.40;99.90;;;;;;5054102;28;20079;-79
2022/01/01 06:33:49;;;;;;;84.78;24.83;;;10.40;99.90;;;;;;5053972;28;20063;-79
2022/01/01 06:36:15;;;;;;;81.63;23.95;;;10.80;99.90;;;;;;5053868;28;20053;-80
2022/01/01 06:38:42;;;;;;;72.20;23.98;;;10.60;99.90;;;;;;5053767;28;20120;-80
2022/01/01 06:41:08;;;;;;;61.53;20.80;;;10.40;99.90;;;;;;5035174;28;20057;-79
2022/01/01 06:43:34;;;;;;;92.40;25.75;;;10.40;99.90;;;;;;5053579;28;20431;-79
2022/01/01 06:46:00;;;;;;;89.32;25.15;;;10.50;99.90;;;;;;5053489;28;20044;-79
2022/01/01 06:48:26;;;;;;;70.22;23.45;;;10.40;99.90;;;;;;5053233;28;20045;-80
2022/01/01 06:50:52;;;;;;;70.45;23.25;;;10.40;99.90;;;;;;5035603;28;20518;-80
2022/01/01 06:53:18;;;;;;;83.90;25.65;;;10.40;99.90;;;;;;5053305;28;20114;-79
2022/01/01 06:55:44;;;;;;;86.22;26.30;;;10.50;99.90;;;;;;5053200;28;20099;-80
2022/01/01 06:58:09;;;;;;;74.93;23.35;;;10.90;99.90;;;;;;5053182;28;20049;-79
2022/01/01 07:00:37;;;;;;;77.28;23.48;;;10.50;99.90;;;;;;5053548;28;20049;-79
2022/01/01 07:03:03;;;;;;;89.22;25.13;;;10.60;99.90;;;;;;5053348;28;20049;-79
2022/01/01 07:05:29;;;;;;;80.13;24.85;;;10.50;99.90;;;;;;5035646;28;20070;-79
2022/01/01 07:07:55;;;;;;;76.00;23.40;;;10.50;99.90;;;;;;5053346;28;20047;-79
2022/01/01 07:10:21;;;;;;;78.20;23.98;;;10.70;99.90;;;;;;5053044;28;20037;-79
2022/01/01 07:12:47;;;;;;;75.57;24.63;;;10.50;99.90;;;;;;5052952;28;20059;-80
2022/01/01 07:15:15;;;;;;;81.30;22.55;;;10.60;99.90;;;;;;5052869;28;20485;-79
2022/01/01 07:17:41;;;;;;;72.53;22.58;;;10.50;99.90;;;;;;5052574;28;20044;-80
2022/01/01 07:20:07;;;;;;;75.25;22.45;;;10.60;99.90;;;;;;5052779;28;20535;-80
2022/01/01 07:22:39;;;;;;;75.97;23.20;;;10.60;99.90;;;;;;5053028;28;20076;-79
2022/01/01 07:25:06;;;;;;;73.80;22.77;;;11.10;99.90;;;;;;5052821;28;20497;-79
2022/01/01 07:27:32;;;;;;;65.85;22.30;;;10.60;99.90;;;;;;5052584;28;20094;-79
2022/01/01 07:29:57;;;;;;;64.75;21.75;;;10.60;99.90;;;;;;5052421;28;20041;-79
2022/01/01 07:32:24;;;;;;;88.03;23.92;;;11.00;99.90;;;;;;5052379;28;20128;-79
2022/01/01 07:34:50;;;;;;;65.13;22.30;;;10.90;99.90;;;;;;5052818;28;20056;-79
2022/01/01 07:37:15;;;;;;;69.25;21.60;;;10.90;99.90;;;;;;5052569;28;20041;-80
2022/01/01 07:39:41;;;;;;;65.97;23.27;;;10.70;99.90;;;;;;5034825;28;20056;-79
2022/01/01 07:42:07;;;;;;;79.85;24.80;;;11.00;99.90;;;;;;5052291;28;20041;-79
2022/01/01 07:44:33;;;;;;;72.25;24.15;;;10.70;99.90;;;;;;5052396;28;20124;-79
2022/01/01 07:46:58;;;;;;;74.20;24.17;;;10.90;99.90;;;;;;5052516;28;20128;-79
2022/01/01 07:49:24;;;;;;;78.13;26.92;;;10.70;99.90;;;;;;5052198;28;20124;-80
2022/01/01 07:51:49;;;;;;;72.35;25.30;;;10.80;99.90;;;;;;5052097;28;20041;-79
2022/01/01 07:54:15;;;;;;;74.90;26.17;;;10.70;99.90;;;;;;5052403;28;20107;-78
2022/01/01 07:56:41;;;;;;;63.60;25.58;;;10.80;99.90;;;;;;5052314;28;20486;-79
2022/01/01 07:59:06;;;;;;;77.78;27.42;;;10.80;99.90;;;;;;5051828;28;20057;-79
2022/01/01 08:01:32;;;;;;;81.40;27.60;;;10.80;99.90;;;;;;5051989;28;20055;-79
2022/01/01 08:04:02;;;;;;;87.35;27.05;;;10.80;99.90;;;;;;5051818;28;20080;-79
2022/01/01 08:06:29;;;;;;;92.45;27.63;;;10.90;99.90;;;;;;5033777;28;20496;-79
2022/01/01 08:08:55;;;;;;;73.55;26.17;;;10.90;99.90;;;;;;5051850;28;20120;-80
2022/01/01 08:11:20;;;;;;;75.82;26.50;;;10.90;99.90;;;;;;5051917;28;20068;-79
2022/01/01 08:13:46;;;;;;;70.10;26.33;;;10.90;99.90;;;;;;5051878;28;20041;-80
2022/01/01 08:16:12;;;;;;;74.90;28.25;;;11.00;99.90;;;;;;5051138;28;20080;-79
2022/01/01 08:18:37;;;;;;;73.32;28.83;;;11.00;99.90;;;;;;5051608;28;20041;-79
2022/01/01 08:21:03;;;;;;;71.28;29.08;;;11.10;99.90;;;;;;5033941;28;20049;-78
2022/01/01 08:23:29;;;;;;;80.95;30.02;;;11.00;99.90;;;;;;5046932;28;20115;-78
2022/01/01 08:25:56;;;;;;;86.00;29.10;;;11.10;99.90;;;;;;5037466;28;20132;-80
2022/01/01 08:28:21;;;;;;;78.05;27.90;;;11.00;99.90;;;;;;5031617;28;20503;-79
2022/01/01 08:30:47;;;;;;;80.10;30.67;;;11.10;99.90;;;;;;5031201;28;20053;-79
2022/01/01 08:33:13;;;;;;;85.65;31.92;;;11.10;99.90;;;;;;5031218;28;20067;-79
2022/01/01 08:35:38;;;;;;;83.32;29.75;;;11.40;99.90;;;;;;5035671;28;20080;-79
2022/01/01 08:38:04;;;;;;;83.53;29.20;;;11.10;99.90;;;;;;5051715;28;20041;-80
2022/01/01 08:40:31;;;;;;;82.28;30.98;;;11.40;99.90;;;;;;5047346;28;20045;-78
2022/01/01 08:42:58;;;;;;;83.30;30.27;;;11.20;99.90;;;;;;5050164;28;20655;-79
2022/01/01 08:45:24;;;;;;;71.10;28.63;;;11.20;99.90;;;;;;5050914;28;20391;-80
2022/01/01 08:47:50;;;;;;;63.15;28.00;;;11.40;99.90;;;;;;5050274;28;20037;-79
2022/01/01 08:50:16;;;;;;;73.15;27.98;;;11.30;99.90;;;;;;5032834;28;20056;-81
2022/01/01 08:52:43;;;;;;;70.63;26.73;;;11.30;99.90;;;;;;5033066;28;20685;-79
2022/01/01 08:55:09;;;;;;;65.20;27.15;;;11.40;99.90;;;;;;5050416;28;20045;-80
2022/01/01 08:57:34;;;;;;;62.08;27.33;;;11.40;99.90;;;;;;5051184;28;20051;-79
2022/01/01 09:00:02;;;;;;;56.22;26.58;;;11.80;99.90;;;;;;5050642;28;20102;-80
2022/01/01 09:02:28;;;;;;;61.63;26.90;;;11.40;99.90;;;;;;5050639;28;20055;-80
2022/01/01 09:04:54;;;;;;;66.82;26.73;;;11.40;99.90;;;;;;5049888;28;20049;-81
2022/01/01 09:07:19;;;;;;;60.72;26.58;;;11.50;99.90;;;;;;5050586;28;20044;-79
2022/01/01 09:09:45;;;;;;;66.75;25.50;;;11.50;99.90;;;;;;5050422;28;20048;-79
2022/01/01 09:12:11;;;;;;;58.28;26.75;;;11.50;99.90;;;;;;5050499;28;20041;-77
2022/01/01 09:14:37;;;;;;;60.83;26.30;;;11.50;99.90;;;;;;5050426;28;20583;-79
2022/01/01 09:17:06;;;;;;;52.50;24.90;;;11.50;99.90;;;;;;5050159;28;20056;-78
2022/01/01 09:19:32;;;;;;;54.63;24.83;;;11.50;99.90;;;;;;5032801;28;20059;-78
2022/01/01 09:21:57;;;;;;;64.32;25.20;;;11.50;99.90;;;;;;5050380;28;20491;-78
2022/01/01 09:24:23;;;;;;;56.60;25.58;;;11.50;99.90;;;;;;5031172;28;20045;-79
2022/01/01 09:26:49;;;;;;;49.75;24.15;;;11.70;99.90;;;;;;5052758;28;20129;-79
2022/01/01 09:29:14;;;;;;;61.95;23.45;;;11.50;99.90;;;;;;5052156;28;20502;-79
2022/01/01 09:31:42;;;;;;;65.15;24.77;;;11.50;99.90;;;;;;5069565;28;20059;-79
2022/01/01 09:34:08;;;;;;;48.33;22.60;;;11.60;99.90;;;;;;5069390;28;20125;-79
2022/01/01 09:36:35;;;;;;;54.75;23.17;;;11.60;99.90;;;;;;5069252;28;20049;-80
2022/01/01 09:39:03;;;;;;;47.17;22.65;;;11.60;99.90;;;;;;5069792;28;20476;-79
2022/01/01 09:41:29;;;;;;;49.90;23.58;;;11.60;99.90;;;;;;5070219;28;20051;-78
2022/01/01 09:43:56;;;;;;;49.45;21.88;;;11.60;99.90;;;;;;5070110;28;20052;-79
2022/01/01 09:46:25;;;;;;;44.58;19.08;;;11.90;99.90;;;;;;5069873;28;20469;-80
2022/01/01 09:48:52;;;;;;;39.33;19.95;;;12.30;99.90;;;;;;5069765;28;20475;-79
2022/01/01 09:51:19;;;;;;;46.25;20.30;;;11.70;99.90;;;;;;5070061;28;20135;-78
2022/01/01 09:53:45;;;;;;;45.05;18.67;;;11.70;99.90;;;;;;5069823;28;20048;-78
2022/01/01 09:56:11;;;;;;;44.58;20.55;;;11.70;99.90;;;;;;5074164;28;20122;-79
2022/01/01 09:58:38;;;;;;;41.20;19.35;;;11.70;99.90;;;;;;5074536;28;20131;-79
2022/01/01 10:01:06;;;;;;;41.30;17.83;;;11.90;99.90;;;;;;5073871;28;20067;-79
2022/01/01 10:03:43;;;;;;;36.22;17.30;;;11.80;99.90;;;;;;5074097;28;20091;-78
2022/01/01 10:06:14;;;;;;;44.97;17.48;;;11.80;99.90;;;;;;5073745;28;20048;-79
2022/01/01 10:08:48;;;;;;;35.83;16.95;;;11.90;99.90;;;;;;5073535;28;20127;-78
2022/01/01 10:11:18;;;;;;;39.00;17.58;;;12.10;99.90;;;;;;5073809;28;20141;-78
2022/01/01 10:13:45;;;;;;;37.72;16.27;;;11.80;99.90;;;;;;5073843;28;20079;-77
2022/01/01 10:16:12;;;;;;;38.22;16.70;;;11.80;99.90;;;;;;5073468;28;20044;-80
2022/01/01 10:18:46;;;;;;;31.67;16.10;;;11.80;99.90;;;;;;5073952;28;20087;-78
2022/01/01 10:21:17;;;;;;;34.28;15.85;;;11.80;99.90;;;;;;5055234;28;20045;-78
2022/01/01 10:23:46;;;;;;;33.75;15.93;;;11.80;99.90;;;;;;5073416;28;20045;-79
2022/01/01 10:29:09;;;;;;;31.77;15.18;;;11.80;99.90;;;;;;5055945;28;20101;-77
2022/01/01 10:31:36;;;;;;;29.05;14.73;;;11.80;99.90;;;;;;5072679;28;20052;-78
2022/01/01 10:34:10;;;;;;;30.40;14.82;;;11.80;99.90;;;;;;5073241;28;20079;-79
2022/01/01 10:36:35;;;;;;;30.90;13.05;;;11.90;99.90;;;;;;5060362;28;20056;-79
2022/01/01 10:39:12;;;;;;;29.75;13.63;;;11.90;99.90;;;;;;5035346;28;20052;-80
2022/01/01 10:41:50;;;;;;;29.92;13.43;;;12.20;99.90;;;;;;5035696;28;20107;-79
2022/01/01 10:44:20;;;;;;;28.65;13.38;;;11.90;99.90;;;;;;5053569;28;20045;-78
2022/01/01 10:46:46;;;;;;;27.02;12.63;;;11.90;99.90;;;;;;5053084;28;20079;-78
2022/01/01 10:49:43;;;;;;;35.25;13.73;;;11.90;99.90;;;;;;5053691;28;20040;-79
2022/01/01 10:52:19;;;;;;;30.02;13.18;;;11.90;99.90;;;;;;5052729;28;20434;-79
2022/01/01 10:55:08;;;;;;;27.13;12.25;;;12.00;99.90;;;;;;5053442;28;20053;-78
2022/01/01 10:57:38;;;;;;;31.15;13.45;;;12.00;99.90;;;;;;4972038;28;20082;-78
2022/01/01 11:00:17;;;;;;;28.25;12.90;;;12.40;99.90;;;;;;4971412;28;20113;-80
2022/01/01 11:02:56;;;;;;;28.63;13.38;;;11.70;99.90;;;;;;4972692;28;20144;-78
2022/01/01 11:05:32;;;;;;;28.63;12.50;;;12.10;99.90;;;;;;4987567;28;20570;-80
2022/01/01 11:07:59;;;;;;;29.58;12.30;;;12.10;99.90;;;;;;4988914;28;20058;-79
2022/01/01 11:10:26;;;;;;;30.63;12.00;;;12.10;99.90;;;;;;4990111;28;20599;-78
2022/01/01 11:12:53;;;;;;;28.10;11.68;;;12.10;99.90;;;;;;4990316;28;20050;-79
2022/01/01 11:15:20;;;;;;;23.02;10.73;;;12.10;99.90;;;;;;4989527;28;20058;-78
2022/01/01 11:17:46;;;;;;;29.67;10.52;;;12.20;99.90;;;;;;4990726;28;20058;-80
2022/01/01 11:20:14;;;;;;;22.98;10.52;;;12.10;99.90;;;;;;4990205;28;20100;-78
2022/01/01 11:22:40;;;;;;;24.52;10.70;;;12.10;99.90;;;;;;4989867;28;20055;-80
2022/01/01 11:25:06;;;;;;;26.73;10.70;;;12.20;99.90;;;;;;4990357;28;20085;-78
2022/01/01 11:27:32;;;;;;;22.52;9.90;;;12.20;99.90;;;;;;4970340;28;20063;-79
2022/01/01 11:29:59;;;;;;;27.85;10.40;;;12.50;99.90;;;;;;4983947;28;20046;-77
2022/01/01 11:32:37;;;;;;;20.25;9.65;;;12.40;99.90;;;;;;4990354;28;20062;-78
2022/01/01 11:35:04;;;;;;;23.63;9.60;;;12.20;99.90;;;;;;5033238;28;20518;-78
2022/01/01 11:37:50;;;;;;;20.35;9.15;;;12.30;99.90;;;;;;5067074;28;20044;-78
2022/01/01 11:40:16;;;;;;;22.05;8.80;;;12.30;99.90;;;;;;5054600;28;20068;-79
2022/01/01 11:42:46;;;;;;;21.67;8.85;;;12.30;99.90;;;;;;5071906;28;20080;-78
2022/01/01 11:45:42;;;;;;;23.63;8.65;;;12.40;99.90;;;;;;5070907;28;20028;-82
2022/01/01 11:48:36;;;;;;;23.13;8.50;;;12.30;99.90;;;;;;5072003;28;20521;-78
2022/01/01 11:51:23;;;;;;;30.67;9.02;;;12.30;99.90;;;;;;5051928;28;20566;-77
2022/01/01 11:54:17;;;;;;;16.73;7.18;;;12.40;99.90;;;;;;5035403;28;20037;-78
2022/01/01 11:56:56;;;;;;;18.17;7.88;;;12.50;99.90;;;;;;4970082;28;20050;-79
2022/01/01 11:59:23;;;;;;;23.42;7.57;;;12.40;99.90;;;;;;4970571;28;20043;-79
2022/01/01 12:01:53;;;;;;;22.67;7.20;;;12.40;99.90;;;;;;4970169;28;20058;-78
2022/01/01 12:04:31;;;;;;;20.20;7.28;;;12.40;99.90;;;;;;4969159;28;20051;-78
2022/01/01 12:07:10;;;;;;;15.63;6.60;;;12.40;99.90;;;;;;4965737;28;20055;-79
2022/01/01 12:10:07;;;;;;;21.08;6.95;;;12.40;99.90;;;;;;4954390;28;20577;-79
2022/01/01 12:12:42;;;;;;;16.17;6.50;;;12.40;99.90;;;;;;4954152;28;20050;-80
2022/01/01 12:15:29;;;;;;;17.08;6.63;;;12.40;99.90;;;;;;4969676;28;20478;-80
2022/01/01 12:18:07;;;;;;;13.75;6.25;;;12.70;99.90;;;;;;4958767;28;20055;-78
2022/01/01 12:20:47;;;;;;;16.58;6.10;;;12.40;99.90;;;;;;4968741;28;20058;-77
2022/01/01 12:23:16;;;;;;;19.67;6.60;;;12.40;99.90;;;;;;4970435;28;20101;-79
2022/01/01 12:25:44;;;;;;;16.67;6.50;;;12.40;99.90;;;;;;4970011;28;20496;-79
2022/01/01 12:28:13;;;;;;;21.52;6.60;;;12.50;99.90;;;;;;4954144;28;20058;-79
2022/01/01 12:30:42;;;;;;;15.23;6.38;;;12.70;99.90;;;;;;4969781;28;20137;-77
2022/01/01 12:33:20;;;;;;;15.13;5.80;;;12.40;99.90;;;;;;4987595;28;20052;-78